Time;durP1;ratioP1;P1;durP2;ratioP2;P2;SDS_P1;SDS_P2;PMS_P1;PMS_P2;Temp;Humidity;BMP_temperature;BMP_pressure;BME280_temperature;BME280_humidity;BME280_pressure;Samples;Min_cycle;Max_cycle;Signal;HPM_P1;HPM_P2
2022/11/28 00:01:50;;;;;;;79.30;49.60;;;;;;;0.98;100.00;98182.02;107770;1261;69793;-70
2022/11/28 00:04:20;;;;;;;84.40;52.80;;;;;;;0.97;100.00;98180.15;107790;1265;59707;-70
2022/11/28 00:06:50;;;;;;;83.00;50.40;;;;;;;0.95;100.00;98178.80;107987;1263;59648;-69
2022/11/28 00:09:21;;;;;;;72.50;46.60;;;;;;;0.95;100.00;98181.55;107909;1262;71876;-70
2022/11/28 00:11:50;;;;;;;87.70;50.20;;;;;;;0.94;100.00;98176.43;107862;1266;69815;-69
2022/11/28 00:14:20;;;;;;;81.50;46.30;;;;;;;0.94;100.00;98176.60;107716;1261;70260;-69
2022/11/28 00:16:49;;;;;;;88.10;52.50;;;;;;;0.94;100.00;98179.70;107725;1266;59700;-70
2022/11/28 00:19:18;;;;;;;71.80;42.70;;;;;;;0.94;100.00;98181.60;107708;1257;59718;-69
2022/11/28 00:21:47;;;;;;;68.20;44.20;;;;;;;0.94;100.00;98181.92;107820;1266;71647;-69
2022/11/28 00:24:17;;;;;;;69.10;45.20;;;;;;;0.95;100.00;98180.89;107918;1262;69326;-70
2022/11/28 00:26:47;;;;;;;77.00;46.70;;;;;;;0.95;100.00;98180.02;107731;1261;68538;-70
2022/11/28 00:29:16;;;;;;;71.10;41.40;;;;;;;0.94;100.00;98176.78;107768;1266;59693;-70
2022/11/28 00:31:46;;;;;;;79.70;47.90;;;;;;;0.93;100.00;98178.17;107790;1261;59649;-70
2022/11/28 00:34:15;;;;;;;65.10;40.60;;;;;;;0.91;100.00;98179.41;107927;1266;69684;-70
2022/11/28 00:36:46;;;;;;;70.90;42.80;;;;;;;0.89;100.00;98182.38;107902;1262;69681;-70
2022/11/28 00:39:16;;;;;;;85.70;56.10;;;;;;;0.87;100.00;98183.61;107826;1262;69116;-71
2022/11/28 00:41:45;;;;;;;82.50;50.60;;;;;;;0.86;100.00;98185.19;107855;1266;59685;-71
2022/11/28 00:44:15;;;;;;;69.20;42.20;;;;;;;0.84;100.00;98184.72;107868;1265;59688;-70
2022/11/28 00:46:44;;;;;;;82.30;51.80;;;;;;;0.83;100.00;98185.59;107938;1266;72519;-71
2022/11/28 00:49:13;;;;;;;89.90;54.50;;;;;;;0.83;100.00;98186.44;107852;1266;69828;-70
2022/11/28 00:51:43;;;;;;;85.40;51.10;;;;;;;0.84;100.00;98188.34;107772;1266;68824;-70
2022/11/28 00:54:12;;;;;;;91.20;55.10;;;;;;;0.85;100.00;98187.45;107867;1262;59664;-70
2022/11/28 00:56:43;;;;;;;100.70;57.70;;;;;;;0.86;100.00;98184.33;107672;1266;59782;-70
2022/11/28 00:59:12;;;;;;;88.90;53.30;;;;;;;0.88;100.00;98181.89;107728;1266;70510;-71
2022/11/28 01:01:43;;;;;;;88.30;52.70;;;;;;;0.89;100.00;98184.79;108692;1266;68296;-70
2022/11/28 01:04:16;;;;;;;87.20;51.20;;;;;;;0.90;100.00;98184.24;107882;1266;69581;-71
2022/11/28 01:06:48;;;;;;;85.80;50.20;;;;;;;0.90;100.00;98177.88;107890;1267;59756;-70
2022/11/28 01:09:22;;;;;;;80.50;49.70;;;;;;;0.90;100.00;98174.62;107904;1266;59972;-70
2022/11/28 01:11:53;;;;;;;82.00;49.00;;;;;;;0.90;100.00;98169.47;107877;1263;71997;-70
2022/11/28 01:14:24;;;;;;;88.00;50.80;;;;;;;0.91;100.00;98168.94;107898;1263;68433;-69
2022/11/28 01:16:54;;;;;;;83.10;49.10;;;;;;;0.91;100.00;98162.27;107826;1262;68684;-70
2022/11/28 01:19:26;;;;;;;76.90;47.70;;;;;;;0.91;100.00;98161.23;107713;1262;59707;-69
2022/11/28 01:21:55;;;;;;;76.80;44.40;;;;;;;0.91;100.00;98157.27;107890;1261;59754;-69
2022/11/28 01:24:25;;;;;;;;;;;;;;;0.91;100.00;98151.77;107932;1266;71250;-69
2022/11/28 01:26:56;;;;;;;;;;;;;;;0.90;100.00;98148.73;107857;1261;69069;-69
2022/11/28 01:29:25;;;;;;;65.40;39.20;;;;;;;0.86;100.00;98143.13;107731;1266;69251;-69
2022/11/28 01:31:56;;;;;;;77.70;44.20;;;;;;;0.83;100.00;98140.64;107970;1262;59751;-69
2022/11/28 01:34:25;;;;;;;;;;;;;;;0.79;100.00;98138.16;107809;1267;59751;-69
2022/11/28 01:36:54;;;;;;;67.80;38.30;;;;;;;0.74;100.00;98133.28;107836;1262;71948;-71
2022/11/28 01:39:25;;;;;;;56.70;34.70;;;;;;;0.72;100.00;98131.27;107928;1262;68582;-69
2022/11/28 01:41:55;;;;;;;46.30;28.20;;;;;;;0.69;100.00;98127.56;107877;1261;68257;-70
2022/11/28 01:44:25;;;;;;;47.80;30.30;;;;;;;0.66;100.00;98126.10;107922;1266;59775;-70
2022/11/28 01:46:55;;;;;;;63.60;38.00;;;;;;;0.62;100.00;98127.54;107886;1266;59708;-69
2022/11/28 01:49:30;;;;;;;60.30;36.40;;;;;;;0.60;100.00;98127.25;107686;1266;71364;-70
2022/11/28 01:52:06;;;;;;;59.20;35.90;;;;;;;0.57;100.00;98128.70;107894;1266;69229;-70
2022/11/28 01:54:37;;;;;;;62.20;37.80;;;;;;;0.55;100.00;98127.53;107787;1266;69280;-70
2022/11/28 01:57:15;;;;;;;54.60;35.70;;;;;;;0.52;100.00;98125.54;107812;1263;59700;-71
2022/11/28 01:59:52;;;;;;;59.80;37.90;;;;;;;0.48;100.00;98120.80;107994;1266;59608;-70
2022/11/28 02:02:31;;;;;;;57.30;35.30;;;;;;;0.46;100.00;98120.86;107755;1265;71417;-70
2022/11/28 02:05:01;;;;;;;58.00;36.30;;;;;;;0.43;100.00;98115.80;107942;1263;69703;-70
2022/11/28 02:07:33;;;;;;;59.70;36.00;;;;;;;0.39;100.00;98117.58;108568;1262;69216;-71
2022/11/28 02:10:06;;;;;;;72.30;41.20;;;;;;;0.35;100.00;98111.30;108336;1266;59710;-70
2022/11/28 02:12:57;;;;;;;64.00;38.00;;;;;;;0.32;100.00;98112.06;107899;1266;59648;-71
2022/11/28 02:15:53;;;;;;;59.40;37.50;;;;;;;0.30;100.00;98112.63;107885;1265;71262;-69
2022/11/28 02:18:55;;;;;;;69.10;39.50;;;;;;;0.25;100.00;98112.71;107784;1266;69184;-69
2022/11/28 02:22:08;;;;;;;60.70;39.00;;;;;;;0.21;100.00;98113.63;107554;1266;68367;-69
2022/11/28 02:25:00;;;;;;;57.30;33.40;;;;;;;0.17;100.00;98110.83;107548;1270;59807;-69
2022/11/28 02:28:08;;;;;;;50.90;31.00;;;;;;;0.13;100.00;98110.91;107736;1263;59738;-69
2022/11/28 02:31:09;;;;;;;55.40;33.70;;;;;;;0.08;100.00;98106.53;107896;1262;72019;-69
2022/11/28 02:33:48;;;;;;;63.00;36.40;;;;;;;0.04;100.00;98112.46;107690;1266;68477;-69
2022/11/28 02:36:41;;;;;;;56.20;31.70;;;;;;;-0.02;100.00;98109.84;107755;1266;68564;-69
2022/11/28 02:39:14;;;;;;;56.50;32.20;;;;;;;-0.08;100.00;98110.11;107712;1266;59687;-69
2022/11/28 02:41:59;;;;;;;53.10;29.70;;;;;;;-0.12;100.00;98110.87;107744;1266;59707;-69
2022/11/28 02:44:52;;;;;;;51.50;28.90;;;;;;;-0.14;100.00;98108.86;107770;1266;71429;-69
2022/11/28 02:47:30;;;;;;;57.50;33.60;;;;;;;-0.16;100.00;98109.40;107738;1266;69200;-69
2022/11/28 02:50:02;;;;;;;49.00;30.60;;;;;;;-0.17;100.00;98107.03;107904;1266;69286;-69
2022/11/28 02:52:41;;;;;;;59.20;33.50;;;;;;;-0.18;100.00;98107.23;107846;1262;59714;-69
2022/11/28 02:55:13;;;;;;;68.90;40.10;;;;;;;-0.19;100.00;98109.63;107907;1263;59750;-69
2022/11/28 02:57:51;;;;;;;54.40;35.90;;;;;;;-0.20;100.00;98107.59;107910;1263;70698;-69
2022/11/28 03:00:32;;;;;;;45.10;27.30;;;;;;;-0.21;100.00;98111.23;107944;1266;68613;-69
2022/11/28 03:03:29;;;;;;;56.70;34.90;;;;;;;-0.21;100.00;98113.95;107701;1262;69079;-69
2022/11/28 03:06:44;;;;;;;69.70;40.80;;;;;;;-0.22;100.00;98115.53;107861;1266;59754;-69
2022/11/28 03:09:47;;;;;;;69.90;40.40;;;;;;;-0.23;100.00;98117.43;107726;1266;59704;-69
2022/11/28 03:12:48;;;;;;;61.00;32.60;;;;;;;-0.22;100.00;98117.07;107788;1266;70384;-71
2022/11/28 03:15:31;;;;;;;60.60;35.20;;;;;;;-0.23;100.00;98119.48;108358;1261;69736;-68
2022/11/28 03:18:12;;;;;;;57.10;36.40;;;;;;;-0.24;100.00;98119.48;108126;1262;68267;-69
2022/11/28 03:21:07;;;;;;;50.60;31.30;;;;;;;-0.25;100.00;98118.47;107787;1263;59765;-69
2022/11/28 03:24:05;;;;;;;50.50;30.30;;;;;;;-0.24;100.00;98118.96;107935;1266;59701;-68
2022/11/28 03:26:48;;;;;;;60.00;35.30;;;;;;;-0.22;100.00;98115.17;107973;1266;71339;-68
2022/11/28 03:29:25;;;;;;;61.40;34.70;;;;;;;-0.21;100.00;98114.30;107946;1266;69156;-68
2022/11/28 03:32:00;;;;;;;68.30;38.40;;;;;;;-0.20;100.00;98113.25;107909;1266;69219;-69
2022/11/28 03:34:37;;;;;;;62.20;37.10;;;;;;;-0.18;100.00;98114.42;107857;1261;59703;-69
2022/11/28 03:37:19;;;;;;;70.60;38.50;;;;;;;-0.17;100.00;98113.88;107901;1261;59703;-69
2022/11/28 03:39:57;;;;;;;71.70;39.20;;;;;;;-0.14;100.00;98119.14;107832;1262;71747;-69
2022/11/28 03:42:31;;;;;;;60.80;32.90;;;;;;;-0.13;100.00;98115.02;107888;1262;69197;-69
2022/11/28 03:45:10;;;;;;;77.80;39.20;;;;;;;-0.11;100.00;98120.61;107978;1261;69066;-69
2022/11/28 03:47:46;;;;;;;68.90;36.20;;;;;;;-0.11;100.00;98119.77;107898;1266;59755;-69
2022/11/28 03:50:26;;;;;;;66.80;36.40;;;;;;;-0.14;100.00;98119.64;107973;1261;59772;-69
2022/11/28 03:53:03;;;;;;;59.10;32.60;;;;;;;-0.17;100.00;98119.02;107905;1266;71375;-69
2022/11/28 03:55:40;;;;;;;55.20;31.00;;;;;;;-0.17;100.00;98119.89;107959;1262;68704;-71
2022/11/28 03:58:23;;;;;;;62.70;30.60;;;;;;;-0.16;100.00;98117.11;107907;1266;68591;-69
2022/11/28 04:01:28;;;;;;;69.80;35.10;;;;;;;-0.17;100.00;98114.05;107932;1262;59754;-69
2022/11/28 04:04:21;;;;;;;90.70;36.30;;;;;;;-0.16;100.00;98113.02;107903;1266;59710;-69
2022/11/28 04:07:07;;;;;;;73.90;34.00;;;;;;;-0.19;100.00;98114.25;107851;1262;71399;-69
2022/11/28 04:09:59;;;;;;;47.50;24.00;;;;;;;-0.21;100.00;98117.04;107810;1266;68428;-69
2022/11/28 04:12:38;;;;;;;63.50;32.00;;;;;;;-0.22;100.00;98115.35;107712;1262;69294;-69
2022/11/28 04:15:13;;;;;;;57.30;32.50;;;;;;;-0.23;100.00;98114.34;107887;1265;59750;-69
2022/11/28 04:17:53;;;;;;;52.70;27.40;;;;;;;-0.22;100.00;98118.79;107879;1263;59687;-69
2022/11/28 04:20:32;;;;;;;71.20;39.70;;;;;;;-0.21;100.00;98118.75;107768;1262;71835;-69
2022/11/28 04:23:08;;;;;;;65.50;37.50;;;;;;;-0.18;100.00;98119.05;108471;1265;68447;-70
2022/11/28 04:25:41;;;;;;;71.40;37.50;;;;;;;-0.16;100.00;98123.11;108144;1266;69294;-70
2022/11/28 04:28:17;;;;;;;72.50;39.80;;;;;;;-0.13;100.00;98125.30;107910;1265;59787;-70
2022/11/28 04:30:50;;;;;;;70.60;39.50;;;;;;;-0.11;100.00;98125.92;107978;1266;59692;-69
2022/11/28 04:33:24;;;;;;;80.40;41.00;;;;;;;-0.10;100.00;98124.02;107947;1266;72018;-70
2022/11/28 04:35:55;;;;;;;62.60;35.40;;;;;;;-0.09;100.00;98127.29;107968;1266;69823;-69
2022/11/28 04:38:27;;;;;;;68.40;38.60;;;;;;;-0.10;100.00;98127.11;107759;1266;69825;-69
2022/11/28 04:41:09;;;;;;;63.80;36.40;;;;;;;-0.11;100.00;98128.66;107808;1265;59794;-70
2022/11/28 04:43:44;;;;;;;61.50;34.90;;;;;;;-0.12;100.00;98129.71;107875;1263;59702;-70
2022/11/28 04:46:20;;;;;;;60.10;34.50;;;;;;;-0.12;100.00;98130.41;107920;1266;70430;-69
2022/11/28 04:48:50;;;;;;;71.00;40.10;;;;;;;-0.15;100.00;98131.65;107850;1262;68370;-69
2022/11/28 04:51:26;;;;;;;75.10;44.20;;;;;;;-0.17;100.00;98133.93;107853;1258;69641;-71
2022/11/28 04:54:05;;;;;;;71.70;40.30;;;;;;;-0.18;100.00;98135.84;107781;1263;59740;-70
2022/11/28 04:56:44;;;;;;;69.00;41.70;;;;;;;-0.19;100.00;98134.98;107991;1263;59682;-70
2022/11/28 04:59:14;;;;;;;65.60;37.40;;;;;;;-0.19;100.00;98137.90;107741;1266;71390;-69
2022/11/28 05:01:46;;;;;;;59.20;35.60;;;;;;;-0.18;100.00;98139.27;107998;1262;69123;-71
2022/11/28 05:04:16;;;;;;;69.90;38.00;;;;;;;-0.16;100.00;98138.35;107864;1266;69335;-69
2022/11/28 05:06:45;;;;;;;58.90;33.20;;;;;;;-0.11;100.00;98138.77;107778;1267;59700;-69
2022/11/28 05:09:15;;;;;;;59.50;35.70;;;;;;;-0.06;100.00;98140.23;107889;1262;59729;-70
2022/11/28 05:11:45;;;;;;;66.30;37.50;;;;;;;-0.04;100.00;98138.65;107896;1266;72009;-70
2022/11/28 05:14:17;;;;;;;69.90;40.70;;;;;;;-0.01;100.00;98139.63;107871;1266;68354;-70
2022/11/28 05:16:46;;;;;;;75.20;43.10;;;;;;;-0.01;100.00;98137.73;107912;1263;69973;-70
2022/11/28 05:19:17;;;;;;;65.00;37.70;;;;;;;-0.01;100.00;98139.63;107862;1261;59652;-70
2022/11/28 05:21:46;;;;;;;55.30;33.60;;;;;;;0.00;100.00;98145.27;107830;1262;59719;-70
2022/11/28 05:24:15;;;;;;;51.30;31.80;;;;;;;-0.02;100.00;98142.21;107873;1263;72024;-69
2022/11/28 05:26:44;;;;;;;63.30;36.40;;;;;;;-0.02;100.00;98139.48;107786;1266;68903;-69
2022/11/28 05:29:13;;;;;;;66.20;39.00;;;;;;;-0.02;100.00;98139.29;107936;1263;68553;-70
2022/11/28 05:31:43;;;;;;;58.50;34.30;;;;;;;-0.02;100.00;98134.32;107732;1266;59713;-70
2022/11/28 05:34:12;;;;;;;60.30;34.90;;;;;;;-0.02;100.00;98139.62;108000;1261;59738;-70
2022/11/28 05:36:41;;;;;;;57.90;34.50;;;;;;;0.00;100.00;98137.38;107913;1266;70455;-69
2022/11/28 05:39:11;;;;;;;57.60;34.40;;;;;;;0.02;100.00;98138.55;107767;1266;69700;-70
2022/11/28 05:41:41;;;;;;;54.40;34.10;;;;;;;0.05;100.00;98139.00;107715;1266;69356;-69
2022/11/28 05:44:10;;;;;;;57.10;35.10;;;;;;;0.06;100.00;98136.58;107896;1263;59752;-69
2022/11/28 05:46:40;;;;;;;51.00;29.40;;;;;;;0.09;100.00;98136.68;107847;1266;59765;-67
2022/11/28 05:49:09;;;;;;;55.10;31.20;;;;;;;0.12;100.00;98138.88;107951;1266;70377;-69
2022/11/28 05:51:39;;;;;;;55.40;31.10;;;;;;;0.12;100.00;98138.02;107959;1264;69194;-68
2022/11/28 05:54:08;;;;;;;59.30;33.60;;;;;;;0.11;100.00;98140.44;107924;1266;69308;-66
2022/11/28 05:56:37;;;;;;;73.00;41.20;;;;;;;0.19;100.00;98138.73;107895;1266;59769;-67
2022/11/28 05:59:11;;;;;;;68.50;39.10;;;;;;;0.21;100.00;98144.17;107881;1262;59686;-68
2022/11/28 06:01:40;;;;;;;67.30;41.10;;;;;;;0.22;100.00;98142.42;107873;1266;71391;-67
2022/11/28 06:04:09;;;;;;;72.70;41.10;;;;;;;0.24;100.00;98138.47;107954;1265;69163;-67
2022/11/28 06:06:38;;;;;;;65.10;38.60;;;;;;;0.28;100.00;98144.20;107952;1266;69969;-69
2022/11/28 06:09:08;;;;;;;65.70;37.20;;;;;;;0.33;100.00;98142.05;107801;1266;59730;-69
2022/11/28 06:11:37;;;;;;;65.50;36.30;;;;;;;0.37;100.00;98141.27;107958;1266;59679;-69
2022/11/28 06:14:06;;;;;;;60.90;39.30;;;;;;;0.42;100.00;98143.23;107946;1266;70990;-68
2022/11/28 06:16:36;;;;;;;69.50;39.00;;;;;;;0.46;100.00;98144.52;107800;1263;69207;-68
2022/11/28 06:19:06;;;;;;;59.90;37.20;;;;;;;0.54;100.00;98145.40;107841;1265;68930;-69
2022/11/28 06:21:35;;;;;;;66.30;42.40;;;;;;;0.63;100.00;98141.61;107955;1265;60183;-66
2022/11/28 06:24:05;;;;;;;86.80;52.00;;;;;;;0.72;100.00;98141.39;107936;1263;59694;-69
2022/11/28 06:26:33;;;;;;;86.90;51.00;;;;;;;0.81;100.00;98144.81;107893;1262;70931;-68
2022/11/28 06:29:02;;;;;;;78.60;45.70;;;;;;;0.87;100.00;98144.16;107858;1261;68346;-70
2022/11/28 06:31:31;;;;;;;74.30;43.60;;;;;;;0.98;100.00;98140.30;107954;1261;69285;-73
2022/11/28 06:34:00;;;;;;;60.40;38.50;;;;;;;1.18;100.00;98140.86;109076;1261;59687;-71
2022/11/28 06:36:29;;;;;;;57.30;33.70;;;;;;;1.36;100.00;98143.02;108740;1261;59773;-72
2022/11/28 06:38:58;;;;;;;50.80;30.60;;;;;;;1.51;100.00;98142.30;108171;1265;71447;-73
2022/11/28 06:41:27;;;;;;;56.10;35.60;;;;;;;1.64;100.00;98144.20;108135;1264;69010;-75
2022/11/28 06:43:56;;;;;;;54.40;33.90;;;;;;;1.76;100.00;98143.89;108097;1262;69260;-75
2022/11/28 06:46:25;;;;;;;48.90;30.20;;;;;;;1.84;100.00;98140.42;108117;1263;59740;-75
2022/11/28 06:48:54;;;;;;;41.10;28.40;;;;;;;1.91;100.00;98140.41;108128;1262;59739;-74
2022/11/28 06:51:23;;;;;;;39.20;25.00;;;;;;;2.00;100.00;98140.16;108084;1266;71326;-74
2022/11/28 06:53:53;;;;;;;40.60;26.50;;;;;;;2.10;100.00;98139.41;107940;1262;69363;-74
2022/11/28 06:56:22;;;;;;;37.50;25.50;;;;;;;2.17;99.96;98136.63;108144;1264;68479;-75
2022/11/28 06:58:56;;;;;;;32.20;22.40;;;;;;;2.23;99.91;98135.58;108153;1266;59674;-73
2022/11/28 07:01:29;;;;;;;34.80;23.90;;;;;;;2.31;99.61;98134.52;108078;1266;59702;-74
2022/11/28 07:03:58;;;;;;;35.70;22.80;;;;;;;2.38;99.62;98135.69;108112;1266;71330;-74
2022/11/28 07:06:28;;;;;;;38.70;23.40;;;;;;;2.45;99.16;98130.85;108074;1265;68760;-74
2022/11/28 07:08:58;;;;;;;33.70;23.80;;;;;;;2.51;99.06;98129.45;108092;1265;69238;-74
2022/11/28 07:11:28;;;;;;;;;;;;;;;2.59;99.16;98122.70;108134;1260;59761;-75
2022/11/28 07:13:59;;;;;;;28.40;21.10;;;;;;;2.65;98.18;98123.21;108107;1262;59724;-74
2022/11/28 07:16:31;;;;;;;39.60;25.70;;;;;;;2.70;97.80;98124.77;108128;1265;72000;-75
2022/11/28 07:19:00;;;;;;;33.90;24.10;;;;;;;2.75;96.79;98126.35;108142;1262;69797;-75
2022/11/28 07:21:30;;;;;;;36.40;24.10;;;;;;;2.78;96.17;98125.04;108105;1265;69239;-75
2022/11/28 07:23:59;;;;;;;35.80;22.50;;;;;;;2.82;96.27;98125.61;108129;1264;59722;-74
2022/11/28 07:26:29;;;;;;;30.40;23.50;;;;;;;2.89;96.75;98125.93;108101;1266;59771;-75
2022/11/28 07:28:58;;;;;;;28.30;19.40;;;;;;;2.94;96.91;98121.98;108112;1262;72110;-74
2022/11/28 07:31:30;;;;;;;28.70;17.50;;;;;;;3.00;96.47;98118.00;108057;1266;69823;-74
2022/11/28 07:34:04;;;;;;;30.30;21.00;;;;;;;3.07;96.08;98117.77;108088;1262;68445;-73
2022/11/28 07:36:33;;;;;;;29.90;21.10;;;;;;;3.14;96.14;98113.10;108057;1263;59760;-74
2022/11/28 07:39:05;;;;;;;30.00;19.90;;;;;;;3.21;96.35;98114.58;108128;1262;59786;-74
2022/11/28 07:41:34;;;;;;;30.90;18.80;;;;;;;3.27;95.13;98113.54;109716;1262;71878;-74
2022/11/28 07:44:04;;;;;;;26.70;19.20;;;;;;;3.33;94.00;98116.09;108205;1262;68353;-75
2022/11/28 07:46:33;;;;;;;;;;;;;;;3.41;93.86;98114.48;108026;1262;68259;-74
2022/11/28 07:49:03;;;;;;;23.60;15.40;;;;;;;3.47;93.45;98114.95;107890;1266;59688;-74
2022/11/28 07:51:32;;;;;;;24.00;15.30;;;;;;;3.53;93.07;98117.16;107926;1266;59755;-74
2022/11/28 07:54:02;;;;;;;;;;;;;;;3.60;92.54;98115.20;108117;1266;72515;-75
2022/11/28 07:56:35;;;;;;;19.00;12.00;;;;;;;3.70;92.84;98115.22;108045;1263;69061;-74
2022/11/28 07:59:23;;;;;;;23.10;16.00;;;;;;;3.79;91.32;98115.95;107980;1261;68432;-77
2022/11/28 08:01:52;;;;;;;21.80;15.70;;;;;;;3.87;91.23;98114.64;108015;1261;59708;-77
2022/11/28 08:04:22;;;;;;;22.40;15.00;;;;;;;3.96;91.23;98118.10;107994;1263;59675;-72
2022/11/28 08:06:50;;;;;;;25.60;16.20;;;;;;;4.06;90.96;98116.52;108002;1263;71350;-71
2022/11/28 08:09:19;;;;;;;28.30;17.80;;;;;;;4.14;88.65;98115.25;107802;1266;68302;-72
2022/11/28 08:11:50;;;;;;;30.20;19.00;;;;;;;4.13;86.58;98118.89;107899;1265;69295;-70
2022/11/28 08:14:19;;;;;;;28.70;18.40;;;;;;;4.21;85.69;98113.77;108087;1266;59688;-72
2022/11/28 08:16:48;;;;;;;28.30;19.30;;;;;;;4.24;84.79;98114.37;108025;1261;59750;-71
2022/11/28 08:19:17;;;;;;;28.40;17.60;;;;;;;4.25;83.97;98113.45;107976;1261;71405;-71
2022/11/28 08:21:52;;;;;;;27.90;18.70;;;;;;;4.31;85.44;98111.50;108048;1262;69344;-71
2022/11/28 08:24:21;;;;;;;26.80;17.40;;;;;;;4.42;85.90;98107.30;107990;1262;69898;-71
2022/11/28 08:26:49;;;;;;;26.50;17.90;;;;;;;4.48;84.36;98103.30;107548;1262;492399;-71
2022/11/28 08:29:19;;;;;;;30.80;19.90;;;;;;;4.52;84.51;98101.39;107982;1266;59714;-71
2022/11/28 08:31:47;;;;;;;26.50;18.60;;;;;;;4.62;84.71;98102.08;107984;1262;70238;-71
2022/11/28 08:34:17;;;;;;;27.10;17.80;;;;;;;4.68;82.98;98100.96;107899;1266;69011;-70
2022/11/28 08:36:46;;;;;;;28.80;19.00;;;;;;;4.69;82.65;98097.67;108013;1257;69806;-72
2022/11/28 08:39:15;;;;;;;28.10;18.20;;;;;;;4.80;83.09;98100.16;108059;1266;59701;-72
2022/11/28 08:41:58;;;;;;;28.00;18.40;;;;;;;4.90;81.55;98098.58;107998;1266;59715;-72
2022/11/28 08:44:27;;;;;;;26.50;18.90;;;;;;;4.96;81.19;98092.14;107894;1259;69557;-71
2022/11/28 08:46:58;;;;;;;27.00;19.20;;;;;;;5.03;81.42;98090.09;108455;1266;69153;-71
2022/11/28 08:49:26;;;;;;;26.10;18.10;;;;;;;5.02;81.19;98084.43;108885;1266;68375;-70
2022/11/28 08:51:55;;;;;;;26.30;17.50;;;;;;;5.16;82.91;98083.02;107900;1261;59723;-71
2022/11/28 08:54:24;;;;;;;26.80;18.10;;;;;;;5.21;79.97;98081.10;108070;1266;59717;-71
2022/11/28 08:56:53;;;;;;;25.80;16.00;;;;;;;5.28;78.64;98078.76;107910;1266;71262;-71
2022/11/28 08:59:21;;;;;;;24.90;17.50;;;;;;;5.33;78.35;98072.83;108060;1266;69149;-70
2022/11/28 09:01:53;;;;;;;23.30;16.20;;;;;;;5.41;78.19;98070.61;108227;1261;69209;-72
2022/11/28 09:04:22;;;;;;;22.40;16.70;;;;;;;5.45;77.82;98065.27;108406;1263;59775;-71
2022/11/28 09:06:52;;;;;;;25.20;16.80;;;;;;;5.62;77.93;98065.39;108010;1265;59780;-69
2022/11/28 09:09:21;;;;;;;19.60;15.20;;;;;;;5.74;77.43;98059.89;108028;1262;71377;-71
2022/11/28 09:11:50;;;;;;;19.30;15.10;;;;;;;6.00;78.96;98057.36;107991;1262;68543;-70
2022/11/28 09:14:18;;;;;;;20.90;14.30;;;;;;;6.25;77.60;98047.44;107992;1264;69265;-72
2022/11/28 09:16:47;;;;;;;19.40;13.60;;;;;;;6.57;75.45;98045.65;107980;1262;59683;-68
2022/11/28 09:19:16;;;;;;;22.60;14.60;;;;;;;6.85;71.84;98042.02;107884;1262;59758;-69
2022/11/28 09:21:45;;;;;;;21.00;13.90;;;;;;;7.47;69.16;98039.37;108060;1266;70588;-70
2022/11/28 09:24:14;;;;;;;19.60;13.90;;;;;;;8.28;65.16;98035.52;108017;1266;68389;-70
2022/11/28 09:26:42;;;;;;;19.00;13.80;;;;;;;9.12;61.94;98027.90;107863;1262;69307;-68
2022/11/28 09:29:11;;;;;;;17.40;13.20;;;;;;;10.08;59.49;98018.61;107680;1261;59728;-68
2022/11/28 09:31:41;;;;;;;17.50;13.20;;;;;;;11.15;55.21;98012.20;107953;1262;59701;-68
2022/11/28 09:34:15;;;;;;;16.90;13.70;;;;;;;11.85;54.27;98007.81;107826;1266;70895;-68
2022/11/28 09:36:44;;;;;;;14.50;11.30;;;;;;;13.00;50.32;98006.42;107831;1266;69808;-69
2022/11/28 09:39:15;;;;;;;14.50;11.20;;;;;;;13.94;49.99;98003.19;107808;1262;69124;-69
2022/11/28 09:42:05;;;;;;;16.20;13.00;;;;;;;13.94;46.50;98000.19;107927;1266;59939;-70
2022/11/28 09:45:05;;;;;;;17.20;12.80;;;;;;;13.87;45.79;97995.84;107814;1258;59688;-70
2022/11/28 09:47:36;;;;;;;14.70;11.90;;;;;;;14.14;46.39;97989.55;107792;1261;70598;-73
2022/11/28 09:50:18;;;;;;;24.20;11.80;;;;;;;14.66;48.84;97992.81;107824;1266;69237;-70
2022/11/28 09:53:18;;;;;;;13.90;11.10;;;;;;;14.54;48.63;97991.65;108065;1262;68687;-70
2022/11/28 09:55:53;;;;;;;13.10;10.30;;;;;;;14.00;45.71;97986.23;107946;1266;59746;-68
2022/11/28 09:58:52;;;;;;;14.70;10.20;;;;;;;13.50;47.01;97988.64;107788;1262;59731;-71
2022/11/28 10:01:39;;;;;;;14.60;11.40;;;;;;;13.03;48.12;97986.55;107700;1262;71987;-72
2022/11/28 10:04:15;;;;;;;16.50;12.50;;;;;;;12.95;51.76;97981.40;107832;1266;69178;-68
2022/11/28 10:07:05;;;;;;;13.30;10.50;;;;;;;12.80;51.08;97981.73;107765;1263;68360;-70
2022/11/28 10:10:00;;;;;;;14.50;10.20;;;;;;;12.70;49.66;97976.23;108022;1262;59698;-70
2022/11/28 10:12:49;;;;;;;15.40;12.50;;;;;;;12.73;50.84;97974.41;108325;1266;59780;-70
2022/11/28 10:15:23;;;;;;;13.50;10.30;;;;;;;12.68;48.84;97972.71;107870;1265;71355;-72
2022/11/28 10:18:15;;;;;;;12.30;9.70;;;;;;;12.52;48.48;97965.46;107945;1265;69136;-70
2022/11/28 10:20:47;;;;;;;13.90;10.30;;;;;;;12.34;48.13;97964.11;107788;1266;69257;-72
2022/11/28 10:23:37;;;;;;;14.30;9.30;;;;;;;12.28;48.75;97961.75;107968;1265;59756;-71
2022/11/28 10:26:15;;;;;;;13.80;9.50;;;;;;;11.87;47.94;97956.95;107802;1266;59680;-70
2022/11/28 10:28:49;;;;;;;14.70;11.00;;;;;;;11.56;49.71;97953.61;107958;1266;70617;-70
2022/11/28 10:31:34;;;;;;;12.20;9.10;;;;;;;11.45;51.07;97952.07;107903;1262;68988;-72
2022/11/28 10:34:26;;;;;;;11.70;9.20;;;;;;;11.39;50.52;97950.25;107936;1266;68539;-72
2022/11/28 10:37:19;;;;;;;13.30;9.70;;;;;;;11.47;51.51;97943.02;107887;1262;59688;-72
2022/11/28 10:39:49;;;;;;;14.00;8.80;;;;;;;11.69;50.58;97938.92;107690;1266;59795;-71
2022/11/28 10:42:39;;;;;;;14.30;9.70;;;;;;;11.80;50.63;97939.79;107771;1266;71651;-71
2022/11/28 10:45:29;;;;;;;11.10;7.80;;;;;;;11.98;51.07;97938.54;107734;1265;69599;-72
2022/11/28 10:48:27;;;;;;;13.50;9.40;;;;;;;12.00;48.89;97934.37;108099;1265;68353;-77
2022/11/28 10:51:29;;;;;;;11.60;9.10;;;;;;;12.10;49.04;97933.70;108060;1265;59735;-75
2022/11/28 10:54:13;;;;;;;11.70;8.20;;;;;;;12.14;47.72;97931.80;107925;1261;59690;-76
2022/11/28 10:57:19;;;;;;;11.80;8.00;;;;;;;12.22;47.89;97927.88;107772;1261;71577;-72
2022/11/28 11:00:04;;;;;;;9.60;7.40;;;;;;;12.23;46.32;97929.95;107760;1262;70081;-73
2022/11/28 11:02:45;;;;;;;10.70;7.60;;;;;;;12.35;47.30;97933.11;107704;1262;68462;-71
2022/11/28 11:05:17;;;;;;;9.60;7.00;;;;;;;12.22;45.65;97934.02;107668;1261;59771;-71
2022/11/28 11:07:53;;;;;;;9.90;6.50;;;;;;;12.00;46.36;97933.67;107682;1264;59748;-70
2022/11/28 11:10:43;;;;;;;10.70;7.90;;;;;;;11.59;46.84;97934.73;107819;1261;72016;-71
2022/11/28 11:13:25;;;;;;;9.10;6.20;;;;;;;11.38;47.42;97935.09;107743;1262;69815;-71
2022/11/28 11:15:59;;;;;;;8.70;6.90;;;;;;;11.07;47.32;97934.08;107667;1266;68912;-73
2022/11/28 11:18:31;;;;;;;10.20;7.90;;;;;;;10.84;48.80;97933.31;108636;1261;59766;-71
2022/11/28 11:21:18;;;;;;;9.50;7.30;;;;;;;10.81;49.20;97931.77;108359;1261;59744;-73
2022/11/28 11:23:49;;;;;;;7.40;5.00;;;;;;;10.82;48.49;97928.90;107971;1262;72042;-70
2022/11/28 11:26:28;;;;;;;8.00;6.40;;;;;;;11.00;49.15;97931.55;107880;1266;68226;-72
2022/11/28 11:28:57;;;;;;;11.40;7.50;;;;;;;11.21;48.92;97929.10;107759;1263;69522;-71
2022/11/28 11:31:42;;;;;;;8.90;6.10;;;;;;;11.47;49.03;97925.27;108024;1266;59720;-71
2022/11/28 11:34:20;;;;;;;9.40;6.60;;;;;;;11.67;47.62;97923.55;108007;1265;59752;-70
2022/11/28 11:36:51;;;;;;;9.10;6.20;;;;;;;12.00;47.65;97924.39;107963;1266;71842;-72
2022/11/28 11:39:24;;;;;;;7.70;5.40;;;;;;;12.29;46.18;97926.89;108026;1265;70024;-71
2022/11/28 11:42:01;;;;;;;10.60;7.30;;;;;;;12.78;45.51;97928.04;108006;1259;69707;-75
2022/11/28 11:44:33;;;;;;;8.80;6.70;;;;;;;14.21;44.41;97922.56;107958;1265;59795;-71
2022/11/28 11:47:11;;;;;;;9.30;6.10;;;;;;;15.57;42.26;97919.15;108044;1264;59713;-72
2022/11/28 11:49:42;;;;;;;6.90;5.10;;;;;;;16.70;39.49;97920.31;108001;1266;71960;-72